sensor_id;sensor_type;location;lat;lon;timestamp;P1;durP1;ratioP1;P2;durP2;ratioP2
13202;SDS011;6666;51.626;7.530;2023-02-05T00:02:22;18.73;;;9.18;;
13202;SDS011;6666;51.626;7.530;2023-02-05T00:04:50;17.85;;;9.32;;
13202;SDS011;6666;51.626;7.530;2023-02-05T00:07:19;18.63;;;9.23;;
13202;SDS011;6666;51.626;7.530;2023-02-05T00:09:48;17.65;;;9.38;;
13202;SDS011;6666;51.626;7.530;2023-02-05T00:12:16;20.95;;;8.90;;
13202;SDS011;6666;51.626;7.530;2023-02-05T00:14:44;14.65;;;9.10;;
13202;SDS011;6666;51.626;7.530;2023-02-05T00:17:14;15.30;;;9.18;;
13202;SDS011;6666;51.626;7.530;2023-02-05T00:19:42;18.90;;;9.80;;
13202;SDS011;6666;51.626;7.530;2023-02-05T00:22:11;21.55;;;9.50;;
13202;SDS011;6666;51.626;7.530;2023-02-05T00:24:39;17.27;;;9.48;;
13202;SDS011;6666;51.626;7.530;2023-02-05T00:27:07;17.08;;;9.38;;
13202;SDS011;6666;51.626;7.530;2023-02-05T00:29:36;18.40;;;9.60;;
13202;SDS011;6666;51.626;7.530;2023-02-05T00:32:05;15.95;;;9.60;;
13202;SDS011;6666;51.626;7.530;2023-02-05T00:34:34;18.90;;;9.95;;
13202;SDS011;6666;51.626;7.530;2023-02-05T00:37:02;22.10;;;9.70;;
13202;SDS011;6666;51.626;7.530;2023-02-05T00:39:31;18.58;;;9.68;;
13202;SDS011;6666;51.626;7.530;2023-02-05T00:41:59;20.73;;;10.07;;
13202;SDS011;6666;51.626;7.530;2023-02-05T00:44:27;18.35;;;10.23;;
13202;SDS011;6666;51.626;7.530;2023-02-05T00:46:56;18.52;;;9.40;;
13202;SDS011;6666;51.626;7.530;2023-02-05T00:49:24;19.77;;;9.57;;
13202;SDS011;6666;51.626;7.530;2023-02-05T00:51:53;18.90;;;9.82;;
13202;SDS011;6666;51.626;7.530;2023-02-05T00:54:22;19.38;;;9.45;;
13202;SDS011;6666;51.626;7.530;2023-02-05T00:56:50;20.42;;;9.23;;
13202;SDS011;6666;51.626;7.530;2023-02-05T00:59:19;17.90;;;8.50;;
13202;SDS011;6666;51.626;7.530;2023-02-05T01:01:49;12.98;;;8.55;;
13202;SDS011;6666;51.626;7.530;2023-02-05T01:04:19;19.37;;;8.90;;
13202;SDS011;6666;51.626;7.530;2023-02-05T01:06:47;15.88;;;8.43;;
13202;SDS011;6666;51.626;7.530;2023-02-05T01:09:16;24.87;;;8.93;;
13202;SDS011;6666;51.626;7.530;2023-02-05T01:11:45;18.80;;;9.10;;
13202;SDS011;6666;51.626;7.530;2023-02-05T01:14:13;16.63;;;8.10;;
13202;SDS011;6666;51.626;7.530;2023-02-05T01:16:41;14.38;;;8.52;;
13202;SDS011;6666;51.626;7.530;2023-02-05T01:19:10;25.55;;;10.00;;
13202;SDS011;6666;51.626;7.530;2023-02-05T01:21:38;17.40;;;9.00;;
13202;SDS011;6666;51.626;7.530;2023-02-05T01:24:06;19.23;;;8.50;;
13202;SDS011;6666;51.626;7.530;2023-02-05T01:26:36;19.60;;;9.57;;
13202;SDS011;6666;51.626;7.530;2023-02-05T01:29:06;16.65;;;10.00;;
13202;SDS011;6666;51.626;7.530;2023-02-05T01:31:35;27.92;;;11.05;;
13202;SDS011;6666;51.626;7.530;2023-02-05T01:34:04;13.95;;;8.18;;
13202;SDS011;6666;51.626;7.530;2023-02-05T01:36:32;15.55;;;8.93;;
13202;SDS011;6666;51.626;7.530;2023-02-05T01:39:00;21.65;;;8.82;;
13202;SDS011;6666;51.626;7.530;2023-02-05T01:41:29;23.10;;;8.63;;
13202;SDS011;6666;51.626;7.530;2023-02-05T01:44:06;17.65;;;8.80;;
13202;SDS011;6666;51.626;7.530;2023-02-05T01:46:36;19.07;;;9.40;;
13202;SDS011;6666;51.626;7.530;2023-02-05T01:49:05;20.75;;;8.40;;
13202;SDS011;6666;51.626;7.530;2023-02-05T01:51:37;20.48;;;8.00;;
13202;SDS011;6666;51.626;7.530;2023-02-05T01:54:05;17.80;;;8.32;;
13202;SDS011;6666;51.626;7.530;2023-02-05T01:56:35;16.08;;;8.32;;
13202;SDS011;6666;51.626;7.530;2023-02-05T01:59:10;16.45;;;8.52;;
13202;SDS011;6666;51.626;7.530;2023-02-05T02:01:42;15.63;;;8.20;;
13202;SDS011;6666;51.626;7.530;2023-02-05T02:04:11;18.30;;;9.30;;
13202;SDS011;6666;51.626;7.530;2023-02-05T02:06:46;25.67;;;10.13;;
13202;SDS011;6666;51.626;7.530;2023-02-05T02:09:15;18.05;;;8.40;;
13202;SDS011;6666;51.626;7.530;2023-02-05T02:11:43;21.35;;;8.80;;
13202;SDS011;6666;51.626;7.530;2023-02-05T02:14:13;18.90;;;9.15;;
13202;SDS011;6666;51.626;7.530;2023-02-05T02:16:42;20.73;;;8.93;;
13202;SDS011;6666;51.626;7.530;2023-02-05T02:19:12;22.73;;;8.90;;
13202;SDS011;6666;51.626;7.530;2023-02-05T02:21:58;19.23;;;9.50;;
13202;SDS011;6666;51.626;7.530;2023-02-05T02:24:58;17.40;;;9.20;;
13202;SDS011;6666;51.626;7.530;2023-02-05T02:27:44;23.15;;;8.63;;
13202;SDS011;6666;51.626;7.530;2023-02-05T02:30:19;18.98;;;8.85;;
13202;SDS011;6666;51.626;7.530;2023-02-05T02:32:55;18.73;;;9.10;;
13202;SDS011;6666;51.626;7.530;2023-02-05T02:35:33;22.13;;;9.80;;
13202;SDS011;6666;51.626;7.530;2023-02-05T02:38:07;20.55;;;9.07;;
13202;SDS011;6666;51.626;7.530;2023-02-05T02:40:39;19.67;;;8.85;;
13202;SDS011;6666;51.626;7.530;2023-02-05T02:43:15;20.55;;;9.90;;
13202;SDS011;6666;51.626;7.530;2023-02-05T02:45:50;18.33;;;8.88;;
13202;SDS011;6666;51.626;7.530;2023-02-05T02:48:22;22.33;;;10.25;;
13202;SDS011;6666;51.626;7.530;2023-02-05T02:50:52;22.20;;;9.43;;
13202;SDS011;6666;51.626;7.530;2023-02-05T02:53:23;18.40;;;8.25;;
13202;SDS011;6666;51.626;7.530;2023-02-05T02:55:54;20.10;;;8.85;;
13202;SDS011;6666;51.626;7.530;2023-02-05T02:58:28;24.20;;;9.43;;
13202;SDS011;6666;51.626;7.530;2023-02-05T03:01:02;21.33;;;8.65;;
13202;SDS011;6666;51.626;7.530;2023-02-05T03:03:34;17.30;;;8.90;;
13202;SDS011;6666;51.626;7.530;2023-02-05T03:06:07;18.30;;;9.13;;
13202;SDS011;6666;51.626;7.530;2023-02-05T03:08:41;20.33;;;8.88;;
13202;SDS011;6666;51.626;7.530;2023-02-05T03:11:14;23.53;;;9.67;;
13202;SDS011;6666;51.626;7.530;2023-02-05T03:13:44;18.15;;;8.70;;
13202;SDS011;6666;51.626;7.530;2023-02-05T03:16:17;22.98;;;9.80;;
13202;SDS011;6666;51.626;7.530;2023-02-05T03:18:47;20.10;;;9.65;;
13202;SDS011;6666;51.626;7.530;2023-02-05T03:21:17;18.63;;;9.20;;
13202;SDS011;6666;51.626;7.530;2023-02-05T03:23:49;20.38;;;8.77;;
13202;SDS011;6666;51.626;7.530;2023-02-05T03:26:21;23.08;;;8.90;;
13202;SDS011;6666;51.626;7.530;2023-02-05T03:28:59;18.90;;;9.07;;
13202;SDS011;6666;51.626;7.530;2023-02-05T03:31:33;22.38;;;9.20;;
13202;SDS011;6666;51.626;7.530;2023-02-05T03:34:11;22.17;;;9.43;;
13202;SDS011;6666;51.626;7.530;2023-02-05T03:36:51;22.83;;;9.60;;
13202;SDS011;6666;51.626;7.530;2023-02-05T03:39:30;21.48;;;9.50;;
13202;SDS011;6666;51.626;7.530;2023-02-05T03:42:09;19.25;;;9.70;;
13202;SDS011;6666;51.626;7.530;2023-02-05T03:47:48;22.00;;;9.02;;
13202;SDS011;6666;51.626;7.530;2023-02-05T03:50:31;17.13;;;8.93;;
13202;SDS011;6666;51.626;7.530;2023-02-05T03:53:05;22.08;;;9.60;;
13202;SDS011;6666;51.626;7.530;2023-02-05T03:55:41;18.23;;;8.75;;
13202;SDS011;6666;51.626;7.530;2023-02-05T04:00:46;20.60;;;9.30;;
13202;SDS011;6666;51.626;7.530;2023-02-05T04:03:16;20.77;;;9.60;;
13202;SDS011;6666;51.626;7.530;2023-02-05T04:05:44;22.02;;;8.57;;
13202;SDS011;6666;51.626;7.530;2023-02-05T04:08:12;21.40;;;8.68;;
13202;SDS011;6666;51.626;7.530;2023-02-05T04:10:45;22.17;;;9.32;;
13202;SDS011;6666;51.626;7.530;2023-02-05T04:13:14;25.80;;;9.27;;
13202;SDS011;6666;51.626;7.530;2023-02-05T04:15:42;23.48;;;8.20;;
13202;SDS011;6666;51.626;7.530;2023-02-05T04:18:16;18.40;;;8.88;;
13202;SDS011;6666;51.626;7.530;2023-02-05T04:20:46;16.15;;;8.45;;
13202;SDS011;6666;51.626;7.530;2023-02-05T04:23:18;17.95;;;8.38;;
13202;SDS011;6666;51.626;7.530;2023-02-05T04:25:46;16.17;;;8.32;;
13202;SDS011;6666;51.626;7.530;2023-02-05T04:28:23;23.00;;;9.05;;
13202;SDS011;6666;51.626;7.530;2023-02-05T04:30:52;18.02;;;8.18;;
13202;SDS011;6666;51.626;7.530;2023-02-05T04:33:22;18.73;;;9.13;;
13202;SDS011;6666;51.626;7.530;2023-02-05T04:35:50;18.52;;;7.70;;
13202;SDS011;6666;51.626;7.530;2023-02-05T04:38:24;19.67;;;8.60;;
13202;SDS011;6666;51.626;7.530;2023-02-05T04:40:53;21.83;;;7.63;;
13202;SDS011;6666;51.626;7.530;2023-02-05T04:43:21;22.77;;;8.00;;
13202;SDS011;6666;51.626;7.530;2023-02-05T04:45:49;19.85;;;7.57;;
13202;SDS011;6666;51.626;7.530;2023-02-05T04:48:18;21.45;;;8.00;;
13202;SDS011;6666;51.626;7.530;2023-02-05T04:50:48;24.15;;;7.20;;
13202;SDS011;6666;51.626;7.530;2023-02-05T04:53:16;23.92;;;7.35;;
13202;SDS011;6666;51.626;7.530;2023-02-05T04:55:44;27.55;;;8.30;;
13202;SDS011;6666;51.626;7.530;2023-02-05T04:58:13;21.10;;;7.50;;
13202;SDS011;6666;51.626;7.530;2023-02-05T05:00:41;19.40;;;6.82;;
13202;SDS011;6666;51.626;7.530;2023-02-05T05:03:09;18.58;;;7.10;;
13202;SDS011;6666;51.626;7.530;2023-02-05T05:05:37;23.15;;;7.70;;
13202;SDS011;6666;51.626;7.530;2023-02-05T05:08:07;29.02;;;9.25;;
13202;SDS011;6666;51.626;7.530;2023-02-05T05:10:36;17.63;;;7.20;;
13202;SDS011;6666;51.626;7.530;2023-02-05T05:13:05;23.25;;;8.18;;
13202;SDS011;6666;51.626;7.530;2023-02-05T05:15:33;23.38;;;8.63;;
13202;SDS011;6666;51.626;7.530;2023-02-05T05:18:02;28.17;;;8.25;;
13202;SDS011;6666;51.626;7.530;2023-02-05T05:20:30;23.07;;;7.73;;
13202;SDS011;6666;51.626;7.530;2023-02-05T05:22:59;28.10;;;8.17;;
13202;SDS011;6666;51.626;7.530;2023-02-05T05:25:28;18.25;;;7.45;;
13202;SDS011;6666;51.626;7.530;2023-02-05T05:27:57;28.25;;;8.80;;
13202;SDS011;6666;51.626;7.530;2023-02-05T05:30:25;24.30;;;7.82;;
13202;SDS011;6666;51.626;7.530;2023-02-05T05:32:54;34.92;;;9.63;;
13202;SDS011;6666;51.626;7.530;2023-02-05T05:35:22;26.02;;;8.07;;
13202;SDS011;6666;51.626;7.530;2023-02-05T05:37:50;27.08;;;8.77;;
13202;SDS011;6666;51.626;7.530;2023-02-05T05:40:18;28.60;;;8.77;;
13202;SDS011;6666;51.626;7.530;2023-02-05T05:43:08;22.75;;;8.15;;
13202;SDS011;6666;51.626;7.530;2023-02-05T05:45:56;23.58;;;8.20;;
13202;SDS011;6666;51.626;7.530;2023-02-05T05:48:25;19.05;;;8.05;;
13202;SDS011;6666;51.626;7.530;2023-02-05T05:50:53;25.10;;;8.80;;
13202;SDS011;6666;51.626;7.530;2023-02-05T05:53:22;25.27;;;8.33;;
13202;SDS011;6666;51.626;7.530;2023-02-05T05:55:50;23.80;;;8.30;;
13202;SDS011;6666;51.626;7.530;2023-02-05T05:58:20;25.63;;;10.05;;
13202;SDS011;6666;51.626;7.530;2023-02-05T06:00:48;31.38;;;10.63;;
13202;SDS011;6666;51.626;7.530;2023-02-05T06:03:16;26.55;;;11.27;;
13202;SDS011;6666;51.626;7.530;2023-02-05T06:05:44;38.75;;;13.13;;
13202;SDS011;6666;51.626;7.530;2023-02-05T06:08:13;45.72;;;13.65;;
13202;SDS011;6666;51.626;7.530;2023-02-05T06:10:41;40.63;;;13.45;;
13202;SDS011;6666;51.626;7.530;2023-02-05T06:13:10;38.67;;;12.57;;
13202;SDS011;6666;51.626;7.530;2023-02-05T06:15:39;31.90;;;12.70;;
13202;SDS011;6666;51.626;7.530;2023-02-05T06:18:08;38.70;;;12.88;;
13202;SDS011;6666;51.626;7.530;2023-02-05T06:20:36;41.42;;;13.20;;
13202;SDS011;6666;51.626;7.530;2023-02-05T06:23:04;40.67;;;13.63;;
13202;SDS011;6666;51.626;7.530;2023-02-05T06:25:33;35.97;;;13.00;;
13202;SDS011;6666;51.626;7.530;2023-02-05T06:28:01;39.33;;;13.75;;
13202;SDS011;6666;51.626;7.530;2023-02-05T06:30:30;34.78;;;14.07;;
13202;SDS011;6666;51.626;7.530;2023-02-05T06:33:00;41.38;;;14.95;;
13202;SDS011;6666;51.626;7.530;2023-02-05T06:35:28;46.70;;;15.15;;
13202;SDS011;6666;51.626;7.530;2023-02-05T06:37:57;34.38;;;13.60;;
13202;SDS011;6666;51.626;7.530;2023-02-05T06:40:25;36.55;;;14.25;;
13202;SDS011;6666;51.626;7.530;2023-02-05T06:42:54;40.75;;;15.05;;
13202;SDS011;6666;51.626;7.530;2023-02-05T06:45:22;37.63;;;14.20;;
13202;SDS011;6666;51.626;7.530;2023-02-05T06:47:50;36.55;;;14.88;;
13202;SDS011;6666;51.626;7.530;2023-02-05T06:50:22;37.70;;;14.45;;
13202;SDS011;6666;51.626;7.530;2023-02-05T06:52:51;38.67;;;15.20;;
13202;SDS011;6666;51.626;7.530;2023-02-05T06:55:20;38.42;;;15.73;;
13202;SDS011;6666;51.626;7.530;2023-02-05T06:57:48;49.80;;;17.10;;
13202;SDS011;6666;51.626;7.530;2023-02-05T07:00:16;43.15;;;16.25;;
13202;SDS011;6666;51.626;7.530;2023-02-05T07:02:45;41.78;;;15.80;;
13202;SDS011;6666;51.626;7.530;2023-02-05T07:05:14;46.80;;;17.30;;
13202;SDS011;6666;51.626;7.530;2023-02-05T07:07:43;43.28;;;15.95;;
13202;SDS011;6666;51.626;7.530;2023-02-05T07:10:14;39.65;;;15.88;;
13202;SDS011;6666;51.626;7.530;2023-02-05T07:12:44;54.38;;;17.35;;
13202;SDS011;6666;51.626;7.530;2023-02-05T07:15:12;44.90;;;15.80;;
13202;SDS011;6666;51.626;7.530;2023-02-05T07:17:41;44.00;;;16.15;;
13202;SDS011;6666;51.626;7.530;2023-02-05T07:20:09;47.47;;;16.98;;
13202;SDS011;6666;51.626;7.530;2023-02-05T07:22:38;39.53;;;16.70;;
13202;SDS011;6666;51.626;7.530;2023-02-05T07:25:08;43.05;;;17.45;;
13202;SDS011;6666;51.626;7.530;2023-02-05T07:27:36;39.13;;;16.60;;
13202;SDS011;6666;51.626;7.530;2023-02-05T07:30:05;42.10;;;16.92;;
13202;SDS011;6666;51.626;7.530;2023-02-05T07:32:34;46.00;;;17.13;;
13202;SDS011;6666;51.626;7.530;2023-02-05T07:35:02;44.78;;;17.25;;
13202;SDS011;6666;51.626;7.530;2023-02-05T07:37:31;41.13;;;17.70;;
13202;SDS011;6666;51.626;7.530;2023-02-05T07:39:59;41.70;;;16.52;;
13202;SDS011;6666;51.626;7.530;2023-02-05T07:42:30;40.88;;;16.52;;
13202;SDS011;6666;51.626;7.530;2023-02-05T07:45:00;41.05;;;17.48;;
13202;SDS011;6666;51.626;7.530;2023-02-05T07:47:29;33.23;;;14.90;;
13202;SDS011;6666;51.626;7.530;2023-02-05T07:49:57;37.60;;;16.50;;
13202;SDS011;6666;51.626;7.530;2023-02-05T07:52:25;35.47;;;16.30;;
13202;SDS011;6666;51.626;7.530;2023-02-05T07:54:53;37.25;;;16.20;;
13202;SDS011;6666;51.626;7.530;2023-02-05T07:57:22;35.78;;;16.02;;
13202;SDS011;6666;51.626;7.530;2023-02-05T07:59:53;38.60;;;15.30;;
13202;SDS011;6666;51.626;7.530;2023-02-05T08:02:21;35.70;;;15.43;;
13202;SDS011;6666;51.626;7.530;2023-02-05T08:04:49;32.10;;;14.35;;
13202;SDS011;6666;51.626;7.530;2023-02-05T08:07:18;30.25;;;14.23;;
13202;SDS011;6666;51.626;7.530;2023-02-05T08:09:46;26.35;;;13.10;;
13202;SDS011;6666;51.626;7.530;2023-02-05T08:12:14;28.70;;;13.10;;
13202;SDS011;6666;51.626;7.530;2023-02-05T08:14:43;27.88;;;12.70;;
13202;SDS011;6666;51.626;7.530;2023-02-05T08:17:13;27.48;;;12.77;;
13202;SDS011;6666;51.626;7.530;2023-02-05T08:19:41;25.70;;;11.82;;
13202;SDS011;6666;51.626;7.530;2023-02-05T08:22:09;24.88;;;12.32;;
13202;SDS011;6666;51.626;7.530;2023-02-05T08:24:37;29.92;;;12.20;;
13202;SDS011;6666;51.626;7.530;2023-02-05T08:27:05;24.10;;;11.85;;
13202;SDS011;6666;51.626;7.530;2023-02-05T08:29:34;24.73;;;11.52;;
13202;SDS011;6666;51.626;7.530;2023-02-05T08:32:03;23.50;;;11.73;;
13202;SDS011;6666;51.626;7.530;2023-02-05T08:34:32;21.95;;;11.50;;
13202;SDS011;6666;51.626;7.530;2023-02-05T08:37:01;21.65;;;11.00;;
13202;SDS011;6666;51.626;7.530;2023-02-05T08:39:29;23.50;;;11.00;;
13202;SDS011;6666;51.626;7.530;2023-02-05T08:41:57;19.95;;;10.55;;
13202;SDS011;6666;51.626;7.530;2023-02-05T08:44:26;19.17;;;9.55;;
13202;SDS011;6666;51.626;7.530;2023-02-05T08:46:55;22.63;;;10.18;;
13202;SDS011;6666;51.626;7.530;2023-02-05T08:49:24;20.23;;;9.50;;
13202;SDS011;6666;51.626;7.530;2023-02-05T08:51:53;20.27;;;9.60;;
13202;SDS011;6666;51.626;7.530;2023-02-05T08:54:23;18.83;;;9.25;;
13202;SDS011;6666;51.626;7.530;2023-02-05T08:56:52;18.83;;;9.43;;
13202;SDS011;6666;51.626;7.530;2023-02-05T08:59:20;18.90;;;9.30;;
13202;SDS011;6666;51.626;7.530;2023-02-05T09:01:49;20.95;;;9.77;;
13202;SDS011;6666;51.626;7.530;2023-02-05T09:04:17;15.73;;;8.40;;
13202;SDS011;6666;51.626;7.530;2023-02-05T09:06:47;13.73;;;7.10;;
13202;SDS011;6666;51.626;7.530;2023-02-05T09:09:17;12.35;;;6.00;;
13202;SDS011;6666;51.626;7.530;2023-02-05T09:11:46;7.20;;;4.15;;
13202;SDS011;6666;51.626;7.530;2023-02-05T09:14:14;6.97;;;3.58;;
13202;SDS011;6666;51.626;7.530;2023-02-05T09:16:43;6.28;;;3.08;;
13202;SDS011;6666;51.626;7.530;2023-02-05T09:19:11;5.38;;;2.72;;
13202;SDS011;6666;51.626;7.530;2023-02-05T09:21:39;6.30;;;2.30;;
13202;SDS011;6666;51.626;7.530;2023-02-05T09:24:08;5.28;;;2.30;;
13202;SDS011;6666;51.626;7.530;2023-02-05T09:26:37;4.15;;;2.50;;
13202;SDS011;6666;51.626;7.530;2023-02-05T09:29:06;5.28;;;2.40;;
13202;SDS011;6666;51.626;7.530;2023-02-05T09:31:34;4.25;;;1.80;;
13202;SDS011;6666;51.626;7.530;2023-02-05T09:34:02;4.70;;;2.15;;
13202;SDS011;6666;51.626;7.530;2023-02-05T09:36:31;2.38;;;1.40;;
13202;SDS011;6666;51.626;7.530;2023-02-05T09:38:59;2.50;;;1.40;;
13202;SDS011;6666;51.626;7.530;2023-02-05T09:41:46;1.90;;;1.10;;
13202;SDS011;6666;51.626;7.530;2023-02-05T09:44:21;2.78;;;1.50;;
13202;SDS011;6666;51.626;7.530;2023-02-05T09:46:58;3.30;;;1.20;;
13202;SDS011;6666;51.626;7.530;2023-02-05T09:49:39;2.50;;;1.30;;
13202;SDS011;6666;51.626;7.530;2023-02-05T09:52:16;2.00;;;1.38;;
13202;SDS011;6666;51.626;7.530;2023-02-05T09:54:47;2.50;;;1.05;;
13202;SDS011;6666;51.626;7.530;2023-02-05T09:57:29;6.13;;;2.58;;
13202;SDS011;6666;51.626;7.530;2023-02-05T09:59:59;4.82;;;1.35;;
13202;SDS011;6666;51.626;7.530;2023-02-05T10:02:39;4.60;;;0.80;;
13202;SDS011;6666;51.626;7.530;2023-02-05T10:05:15;2.65;;;1.10;;
13202;SDS011;6666;51.626;7.530;2023-02-05T10:07:46;2.13;;;0.80;;
13202;SDS011;6666;51.626;7.530;2023-02-05T10:10:23;1.83;;;1.00;;
13202;SDS011;6666;51.626;7.530;2023-02-05T10:13:06;1.50;;;1.08;;
13202;SDS011;6666;51.626;7.530;2023-02-05T10:15:58;1.80;;;0.90;;
13202;SDS011;6666;51.626;7.530;2023-02-05T10:18:44;1.58;;;0.80;;
13202;SDS011;6666;51.626;7.530;2023-02-05T10:21:24;3.33;;;0.90;;
13202;SDS011;6666;51.626;7.530;2023-02-05T10:24:10;4.60;;;0.80;;
13202;SDS011;6666;51.626;7.530;2023-02-05T10:26:47;1.08;;;0.77;;
13202;SDS011;6666;51.626;7.530;2023-02-05T10:29:24;1.02;;;0.73;;
13202;SDS011;6666;51.626;7.530;2023-02-05T10:32:05;3.80;;;0.90;;
13202;SDS011;6666;51.626;7.530;2023-02-05T10:34:54;1.52;;;0.60;;
13202;SDS011;6666;51.626;7.530;2023-02-05T10:37:28;1.90;;;0.70;;
13202;SDS011;6666;51.626;7.530;2023-02-05T10:40:05;1.40;;;0.70;;
13202;SDS011;6666;51.626;7.530;2023-02-05T10:42:40;3.03;;;1.15;;
13202;SDS011;6666;51.626;7.530;2023-02-05T10:45:15;1.23;;;0.80;;
13202;SDS011;6666;51.626;7.530;2023-02-05T10:47:55;1.10;;;0.50;;
13202;SDS011;6666;51.626;7.530;2023-02-05T10:50:39;2.20;;;0.80;;
13202;SDS011;6666;51.626;7.530;2023-02-05T10:53:17;1.10;;;0.87;;
13202;SDS011;6666;51.626;7.530;2023-02-05T10:55:46;1.58;;;1.25;;
13202;SDS011;6666;51.626;7.530;2023-02-05T10:58:23;2.58;;;0.70;;
13202;SDS011;6666;51.626;7.530;2023-02-05T11:01:02;2.20;;;0.80;;
13202;SDS011;6666;51.626;7.530;2023-02-05T11:03:32;1.50;;;0.70;;
13202;SDS011;6666;51.626;7.530;2023-02-05T11:06:02;1.08;;;0.70;;
13202;SDS011;6666;51.626;7.530;2023-02-05T11:08:36;3.00;;;0.80;;
13202;SDS011;6666;51.626;7.530;2023-02-05T11:11:06;0.80;;;0.53;;
13202;SDS011;6666;51.626;7.530;2023-02-05T11:13:48;2.50;;;0.80;;
13202;SDS011;6666;51.626;7.530;2023-02-05T11:16:21;1.95;;;0.80;;
13202;SDS011;6666;51.626;7.530;2023-02-05T11:18:56;1.70;;;0.75;;
13202;SDS011;6666;51.626;7.530;2023-02-05T11:27:24;2.20;;;0.90;;
13202;SDS011;6666;51.626;7.530;2023-02-05T11:29:55;1.70;;;0.68;;
13202;SDS011;6666;51.626;7.530;2023-02-05T11:32:32;2.83;;;0.70;;
13202;SDS011;6666;51.626;7.530;2023-02-05T11:35:15;1.90;;;1.00;;
13202;SDS011;6666;51.626;7.530;2023-02-05T11:37:46;1.70;;;1.07;;
13202;SDS011;6666;51.626;7.530;2023-02-05T11:40:17;3.97;;;1.00;;
13202;SDS011;6666;51.626;7.530;2023-02-05T11:42:50;4.57;;;2.20;;
13202;SDS011;6666;51.626;7.530;2023-02-05T11:45:27;5.50;;;1.50;;
13202;SDS011;6666;51.626;7.530;2023-02-05T11:48:00;5.35;;;1.48;;
13202;SDS011;6666;51.626;7.530;2023-02-05T11:50:32;6.40;;;3.10;;
13202;SDS011;6666;51.626;7.530;2023-02-05T11:53:08;6.70;;;2.45;;
13202;SDS011;6666;51.626;7.530;2023-02-05T11:55:42;2.80;;;2.08;;
13202;SDS011;6666;51.626;7.530;2023-02-05T12:01:03;2.20;;;1.35;;
13202;SDS011;6666;51.626;7.530;2023-02-05T12:03:35;3.20;;;1.50;;
13202;SDS011;6666;51.626;7.530;2023-02-05T12:06:06;8.40;;;3.10;;
13202;SDS011;6666;51.626;7.530;2023-02-05T12:08:42;5.20;;;2.90;;
13202;SDS011;6666;51.626;7.530;2023-02-05T12:11:35;9.98;;;3.10;;
13202;SDS011;6666;51.626;7.530;2023-02-05T12:14:38;6.67;;;2.63;;
13202;SDS011;6666;51.626;7.530;2023-02-05T12:17:17;7.65;;;2.42;;
13202;SDS011;6666;51.626;7.530;2023-02-05T12:20:02;3.60;;;1.90;;
13202;SDS011;6666;51.626;7.530;2023-02-05T12:22:51;1.60;;;1.15;;
13202;SDS011;6666;51.626;7.530;2023-02-05T12:25:30;3.85;;;1.10;;
13202;SDS011;6666;51.626;7.530;2023-02-05T12:28:15;5.80;;;1.63;;
13202;SDS011;6666;51.626;7.530;2023-02-05T12:30:55;4.35;;;2.20;;
13202;SDS011;6666;51.626;7.530;2023-02-05T12:36:40;3.00;;;1.00;;
13202;SDS011;6666;51.626;7.530;2023-02-05T12:39:18;1.52;;;1.10;;
13202;SDS011;6666;51.626;7.530;2023-02-05T12:42:01;4.07;;;1.17;;
13202;SDS011;6666;51.626;7.530;2023-02-05T12:44:41;3.05;;;1.20;;
13202;SDS011;6666;51.626;7.530;2023-02-05T12:47:25;3.20;;;1.10;;
13202;SDS011;6666;51.626;7.530;2023-02-05T12:50:11;3.00;;;1.60;;
13202;SDS011;6666;51.626;7.530;2023-02-05T12:53:07;4.47;;;1.60;;
13202;SDS011;6666;51.626;7.530;2023-02-05T12:55:49;3.70;;;1.90;;
13202;SDS011;6666;51.626;7.530;2023-02-05T12:58:30;4.28;;;1.85;;
13202;SDS011;6666;51.626;7.530;2023-02-05T13:01:03;2.60;;;1.60;;
13202;SDS011;6666;51.626;7.530;2023-02-05T13:03:36;2.90;;;1.75;;
13202;SDS011;6666;51.626;7.530;2023-02-05T13:06:09;5.53;;;1.50;;
13202;SDS011;6666;51.626;7.530;2023-02-05T13:08:44;3.30;;;1.60;;
13202;SDS011;6666;51.626;7.530;2023-02-05T13:11:18;2.58;;;1.90;;
13202;SDS011;6666;51.626;7.530;2023-02-05T13:13:50;2.50;;;2.00;;
13202;SDS011;6666;51.626;7.530;2023-02-05T13:16:21;4.20;;;2.40;;
13202;SDS011;6666;51.626;7.530;2023-02-05T13:18:58;4.53;;;1.80;;
13202;SDS011;6666;51.626;7.530;2023-02-05T13:21:31;2.78;;;2.20;;
13202;SDS011;6666;51.626;7.530;2023-02-05T13:24:22;4.63;;;2.30;;
13202;SDS011;6666;51.626;7.530;2023-02-05T13:27:13;3.83;;;2.45;;
13202;SDS011;6666;51.626;7.530;2023-02-05T13:30:07;4.60;;;3.10;;
13202;SDS011;6666;51.626;7.530;2023-02-05T13:32:40;3.40;;;2.10;;
13202;SDS011;6666;51.626;7.530;2023-02-05T13:35:10;6.90;;;3.28;;
13202;SDS011;6666;51.626;7.530;2023-02-05T13:37:42;4.63;;;3.10;;
13202;SDS011;6666;51.626;7.530;2023-02-05T13:40:27;5.00;;;3.05;;
13202;SDS011;6666;51.626;7.530;2023-02-05T13:49:26;5.77;;;3.20;;
13202;SDS011;6666;51.626;7.530;2023-02-05T13:52:24;8.52;;;3.00;;
13202;SDS011;6666;51.626;7.530;2023-02-05T13:55:19;5.82;;;3.60;;
13202;SDS011;6666;51.626;7.530;2023-02-05T13:58:12;6.03;;;3.00;;
13202;SDS011;6666;51.626;7.530;2023-02-05T14:00:54;4.40;;;2.60;;
13202;SDS011;6666;51.626;7.530;2023-02-05T14:03:31;8.60;;;2.97;;
13202;SDS011;6666;51.626;7.530;2023-02-05T14:06:15;5.90;;;2.50;;
13202;SDS011;6666;51.626;7.530;2023-02-05T14:08:48;8.00;;;2.70;;
13202;SDS011;6666;51.626;7.530;2023-02-05T14:11:24;4.22;;;2.70;;
13202;SDS011;6666;51.626;7.530;2023-02-05T14:16:53;4.95;;;2.40;;
13202;SDS011;6666;51.626;7.530;2023-02-05T14:19:23;5.72;;;3.00;;
13202;SDS011;6666;51.626;7.530;2023-02-05T14:24:40;8.20;;;2.83;;
13202;SDS011;6666;51.626;7.530;2023-02-05T14:33:24;7.32;;;2.72;;
13202;SDS011;6666;51.626;7.530;2023-02-05T14:39:03;10.48;;;3.25;;
13202;SDS011;6666;51.626;7.530;2023-02-05T14:41:42;5.57;;;2.78;;
13202;SDS011;6666;51.626;7.530;2023-02-05T14:44:19;11.13;;;5.03;;
13202;SDS011;6666;51.626;7.530;2023-02-05T14:46:56;4.75;;;3.03;;
13202;SDS011;6666;51.626;7.530;2023-02-05T14:49:29;5.93;;;2.42;;
13202;SDS011;6666;51.626;7.530;2023-02-05T14:52:04;10.10;;;2.30;;
13202;SDS011;6666;51.626;7.530;2023-02-05T14:54:43;6.10;;;2.20;;
13202;SDS011;6666;51.626;7.530;2023-02-05T14:57:16;7.50;;;2.70;;
13202;SDS011;6666;51.626;7.530;2023-02-05T14:59:49;5.85;;;2.50;;
13202;SDS011;6666;51.626;7.530;2023-02-05T15:05:33;11.65;;;4.07;;
13202;SDS011;6666;51.626;7.530;2023-02-05T15:08:09;9.13;;;3.00;;
13202;SDS011;6666;51.626;7.530;2023-02-05T15:10:44;12.15;;;4.65;;
13202;SDS011;6666;51.626;7.530;2023-02-05T15:13:15;14.52;;;4.82;;
13202;SDS011;6666;51.626;7.530;2023-02-05T15:18:47;7.77;;;3.20;;
13202;SDS011;6666;51.626;7.530;2023-02-05T15:21:20;12.10;;;4.30;;
13202;SDS011;6666;51.626;7.530;2023-02-05T15:23:52;8.40;;;3.13;;
13202;SDS011;6666;51.626;7.530;2023-02-05T15:26:28;14.37;;;4.50;;
13202;SDS011;6666;51.626;7.530;2023-02-05T15:29:05;6.15;;;2.90;;
13202;SDS011;6666;51.626;7.530;2023-02-05T15:31:37;11.50;;;4.70;;
13202;SDS011;6666;51.626;7.530;2023-02-05T15:34:28;13.55;;;4.05;;
13202;SDS011;6666;51.626;7.530;2023-02-05T15:37:03;19.98;;;7.13;;
13202;SDS011;6666;51.626;7.530;2023-02-05T15:39:43;8.90;;;3.33;;
13202;SDS011;6666;51.626;7.530;2023-02-05T15:42:17;7.90;;;2.75;;
13202;SDS011;6666;51.626;7.530;2023-02-05T15:44:47;9.32;;;3.00;;
13202;SDS011;6666;51.626;7.530;2023-02-05T15:47:16;17.80;;;5.78;;
13202;SDS011;6666;51.626;7.530;2023-02-05T15:49:49;24.25;;;8.07;;
13202;SDS011;6666;51.626;7.530;2023-02-05T15:52:20;14.98;;;5.55;;
13202;SDS011;6666;51.626;7.530;2023-02-05T15:54:52;16.23;;;5.07;;
13202;SDS011;6666;51.626;7.530;2023-02-05T15:57:23;10.88;;;3.47;;
13202;SDS011;6666;51.626;7.530;2023-02-05T15:59:54;11.23;;;3.60;;
13202;SDS011;6666;51.626;7.530;2023-02-05T16:02:25;7.70;;;3.47;;
13202;SDS011;6666;51.626;7.530;2023-02-05T16:04:56;9.50;;;2.20;;
13202;SDS011;6666;51.626;7.530;2023-02-05T16:07:26;9.32;;;3.17;;
13202;SDS011;6666;51.626;7.530;2023-02-05T16:09:56;6.57;;;2.23;;